Latest Coastal Weather Observations for Point Stuart

IDD60701

Issued at 12:21 am CST Friday 28 April 2017 (issued every 10 minutes, with the page automatically refreshed every 10 minutes)

About coastal observations | Map of coastal stations | Coastal observations for NT | Marine services | Other Formats
Station Details ID: 014254 Name: POINT STUART Lat: -12.24 Lon: 131.88 Height: 1.0 m
Data from the previous 72 hours. | See also: Recent months at Point Stuart
Date/Time
CST
Temp
°C
Wind Pressure Rain since
9am
mm
Weather Cloud Vis
km
Sea
Height
m
Swell
Dir  Spd
kts
Gust
kts
hPa Trend Height
m
Period
s
Dir
27/10:00pm 25.2 ESE 9 12 1012.3 - - - - - - - - -
27/09:30pm 25.3 E 12 17 1012.6 - - - - - - - - -
27/09:00pm 25.3 E 12 17 1012.4 - - - - - - - - -
27/08:30pm 25.4 ESE 11 16 1011.9 - - - - - - - - -
27/08:00pm 25.7 E 10 15 1011.2 - - - - - - - - -
27/07:30pm 25.6 E 10 14 1010.9 - - - - - - - - -
27/07:00pm 25.6 E 10 13 1010.8 - - - - - - - - -
27/06:30pm 25.2 E 10 17 1010.5 - - - - - - - - -
27/06:00pm 25.1 E 17 27 1010.3 - - - - - - - - -
27/05:37pm 25.4 ENE 21 31 1009.6 - - - - - - - - -
27/05:30pm 26.3 ENE 21 - 1009.4 - - - - - - - - -
27/05:30am 25.0 ESE 10 13 1009.6 - - - - - - - - -
 
Date/Time
CST
Temp
°C
Wind Pressure Rain since
9am
mm
Weather Cloud Vis
km
Sea
Height
m
Swell
Dir  Spd
kts
Gust
kts
hPa Trend Height
m
Period
s
Dir
26/11:30pm 26.3 E 12 17 1010.1 - - - - - - - - -
26/07:00pm 28.1 E 12 16 1009.3 - 0.0 - - - - - - -
26/06:30pm 28.1 E 11 15 1009.1 - 0.0 - - - - - - -
26/06:00pm 28.1 ENE 10 14 1008.9 - 0.0 - - - - - - -
26/05:30pm 28.0 ENE 8 11 1008.6 - 0.0 - - - - - - -
26/05:00pm 28.1 ENE 8 11 1008.0 - 0.0 - - - - - - -
26/04:30pm 28.3 E 8 12 1007.5 - 0.0 - - - - - - -
26/04:00pm 28.6 E 11 14 1007.5 - 0.0 - - - - - - -
26/03:30pm 28.6 E 12 15 1007.6 - 0.0 - - - - - - -
26/03:00pm 28.8 E 11 17 1007.7 - 0.0 - - - - - - -
26/02:30pm 28.9 E 14 20 1008.0 - 0.0 - - - - - - -
26/02:00pm 29.2 ESE 11 20 1008.3 - 0.0 - - - - - - -
26/01:30pm 28.9 ESE 9 13 1008.6 - 0.0 - - - - - - -
26/01:00pm 29.2 E 11 15 1009.2 - 0.0 - - - - - - -
26/12:30pm 29.9 E 10 13 1009.6 - 0.0 - - - - - - -
26/12:00pm 28.9 ESE 10 14 1010.1 - 0.0 - - - - - - -
26/11:30am 28.5 E 9 13 1010.4 - 0.0 - - - - - - -
26/11:00am 27.8 E 10 14 1010.8 - 0.0 - - - - - - -
26/10:30am 27.8 E 10 14 1011.0 - 0.0 - - - - - - -
26/10:00am 27.8 E 12 17 1011.2 - 0.0 - - - - - - -
26/09:30am 27.8 ESE 10 14 1010.9 - 0.0 - - - - - - -
26/09:00am 27.1 ESE 9 13 1010.2 - - - - - - - - -
26/08:30am 26.4 SE 8 12 1010.2 - - - - - - - - -
26/08:00am 25.9 SE 8 11 1010.0 - - - - - - - - -
26/07:30am 25.4 SE 8 11 1009.5 - - - - - - - - -
26/07:00am 25.0 SE 7 9 1009.4 - - - - - - - - -
26/04:00am 24.8 SE 5 6 1009.2 - 0.0 - - - - - - -
26/03:30am 24.9 SE 4 6 1009.1 - 0.0 - - - - - - -
26/03:00am 24.8 ESE 2 4 1009.2 - 0.0 - - - - - - -
26/02:30am 25.1 SE 4 5 1009.2 - 0.0 - - - - - - -
26/02:00am 25.2 SE 5 5 1009.5 - 0.0 - - - - - - -
26/01:30am 25.3 SE 4 6 1009.7 - 0.0 - - - - - - -
26/01:00am 25.9 SSE 4 5 1009.8 - 0.0 - - - - - - -
26/12:30am 26.1 SSE 4 6 1010.2 - 0.0 - - - - - - -
26/12:00am 26.2 SSE 5 7 1010.2 - 0.0 - - - - - - -
 
Date/Time
CST
Temp
°C
Wind Pressure Rain since
9am
mm
Weather Cloud Vis
km
Sea
Height
m
Swell
Dir  Spd
kts
Gust
kts
hPa Trend Height
m
Period
s
Dir
25/11:30pm 26.5 S 4 5 1010.4 - 0.0 - - - - - - -
25/11:00pm 26.4 S 5 6 1010.6 - 0.0 - - - - - - -
25/10:30pm 26.5 SSE 4 5 1010.8 - 0.0 - - - - - - -
25/10:00pm 26.3 SE 4 4 1010.9 - 0.0 - - - - - - -
25/09:30pm 26.5 SE 5 5 1010.8 - 0.0 - - - - - - -
25/09:00pm 26.6 SE 4 5 1010.5 - 0.0 - - - - - - -
25/08:30pm 26.4 E 4 5 1010.0 - 0.0 - - - - - - -
25/08:00pm 26.4 E 4 5 1009.7 - 0.0 - - - - - - -
25/07:30pm 26.4 ENE 4 5 1009.5 - 0.0 - - - - - - -
25/07:00pm 26.6 NE 4 5 1009.4 - 0.0 - - - - - - -
25/06:30pm 27.4 NE 4 6 1009.1 - 0.0 - - - - - - -
25/06:00pm 28.5 NE 5 6 1008.9 - 0.0 - - - - - - -
25/05:30pm 29.3 NE 5 8 1008.7 - 0.0 - - - - - - -
25/05:00pm 29.7 NE 7 10 1008.5 - 0.0 - - - - - - -
25/04:30pm 29.9 ENE 8 11 1008.2 - 0.0 - - - - - - -
25/04:00pm 30.0 ENE 7 10 1008.2 - 0.0 - - - - - - -
25/03:30pm 30.1 ENE 8 11 1008.2 - 0.0 - - - - - - -
25/03:00pm 30.8 NE 9 12 1008.4 - 0.0 - - - - - - -
25/02:30pm 30.7 ENE 9 13 1008.5 - 0.0 - - - - - - -
25/02:00pm 31.2 E 9 12 1008.8 - 0.0 - - - - - - -
25/01:30pm 30.5 E 9 12 1009.2 - 0.0 - - - - - - -
25/01:00pm 30.6 E 9 13 1009.5 - 0.0 - - - - - - -
25/12:30pm 30.2 ESE 8 12 1010.0 - 0.0 - - - - - - -
25/12:00pm 29.2 E 9 12 1010.6 - 0.0 - - - - - - -
25/11:30am 29.7 E 10 14 1011.1 - 0.0 - - - - - - -
25/11:00am 29.4 ESE 8 13 1011.4 - 0.0 - - - - - - -
25/10:30am 29.6 ESE 10 14 1011.6 - 0.0 - - - - - - -
25/10:00am 28.0 SE 6 8 1011.8 - 0.0 - - - - - - -
25/09:30am 27.2 SE 7 9 1011.8 - 0.0 - - - - - - -
25/09:00am 26.4 SE 6 9 1011.6 - 0.0 - - - - - - -
25/08:30am 26.1 SSE 6 8 1011.6 - 0.0 - - - - - - -
25/08:00am 25.9 SSE 5 6 1011.1 - 0.0 - - - - - - -
25/07:30am 25.4 S 5 6 1010.8 - 0.0 - - - - - - -
25/07:00am 25.2 S 3 5 1010.4 - 0.0 - - - - - - -
25/06:30am 24.7 CALM 0 0 1010.1 - 0.0 - - - - - - -
25/06:00am 24.7 CALM 0 0 1009.9 - 0.0 - - - - - - -
25/05:30am 24.8 CALM 0 0 1009.9 - 0.0 - - - - - - -
25/05:00am 25.0 S 3 4 1009.8 - 0.0 - - - - - - -
25/04:30am 25.6 S 1 4 1009.7 - 0.0 - - - - - - -
25/04:00am 25.4 SSW 4 6 1009.4 - 0.0 - - - - - - -
25/03:30am 25.6 SSW 3 4 1009.4 - 0.0 - - - - - - -
25/03:00am 25.8 S 4 5 1009.7 - 0.0 - - - - - - -
25/02:30am 25.9 SSE 4 5 1009.8 - 0.0 - - - - - - -
25/02:00am 26.0 SSE 4 5 1009.9 - 0.0 - - - - - - -
25/01:30am 26.1 S 4 5 1010.3 - 0.0 - - - - - - -
25/01:00am 26.2 SSE 4 5 1010.7 - 0.0 - - - - - - -
25/12:30am 26.5 ESE 3 5 1010.9 - 0.0 - - - - - - -

Other Formats:

Comma delimited format used in spreadsheet applications
http://www.bom.gov.au/fwo/IDD60701/IDD60701.94127.axf

JavaScript Object Notation format (JSON) in row-major order
http://www.bom.gov.au/fwo/IDD60701/IDD60701.94127.json